Time;durP1;ratioP1;P1;durP2;ratioP2;P2;SDS_P1;SDS_P2;PMS_P1;PMS_P2;Temp;Humidity;BMP_temperature;BMP_pressure;BME280_temperature;BME280_humidity;BME280_pressure;Samples;Min_cycle;Max_cycle;Signal;HPM_P1;HPM_P2
2022/04/24 00:01:25;;;;;;;9.00;7.70;;;;;;;;;;8161259;28;20521;-70
2022/04/24 00:05:25;;;;;;;10.82;7.53;;;;;;;;;;8165352;28;20028;-70
2022/04/24 00:09:26;;;;;;;8.20;7.35;;;;;;;;;;8162825;28;20094;-70
2022/04/24 00:13:27;;;;;;;9.27;7.90;;;;;;;;;;8162746;28;20023;-70
2022/04/24 00:17:27;;;;;;;14.18;8.25;;;;;;;;;;8160531;28;20960;-69
2022/04/24 00:21:27;;;;;;;9.85;7.85;;;;;;;;;;8161561;28;20023;-70
2022/04/24 00:25:27;;;;;;;10.00;7.90;;;;;;;;;;8163177;28;20677;-70
2022/04/24 00:29:27;;;;;;;11.73;8.07;;;;;;;;;;8162611;28;20023;-70
2022/04/24 00:33:28;;;;;;;8.88;7.65;;;;;;;;;;8164928;28;20038;-70
2022/04/24 00:37:29;;;;;;;8.55;6.88;;;;;;;;;;8163927;28;20476;-70
2022/04/24 00:41:30;;;;;;;9.60;6.50;;;;;;;;;;8165799;28;20024;-70
2022/04/24 00:45:30;;;;;;;6.88;5.90;;;;;;;;;;8162329;28;20042;-70
2022/04/24 00:49:30;;;;;;;6.90;5.53;;;;;;;;;;8160395;28;20042;-70
2022/04/24 00:53:30;;;;;;;7.40;5.43;;;;;;;;;;8161618;28;20085;-70
2022/04/24 00:57:30;;;;;;;6.10;5.03;;;;;;;;;;8161758;28;20274;-70
2022/04/24 01:01:32;;;;;;;5.43;4.90;;;;;;;;;;8160111;28;20042;-70
2022/04/24 01:05:32;;;;;;;6.18;4.95;;;;;;;;;;8161057;28;20046;-69
2022/04/24 01:09:33;;;;;;;7.53;5.05;;;;;;;;;;8160315;28;20919;-69
2022/04/24 01:13:34;;;;;;;6.25;5.00;;;;;;;;;;8159734;28;20031;-70
2022/04/24 01:17:34;;;;;;;5.25;4.63;;;;;;;;;;8159137;28;20122;-70
2022/04/24 01:21:34;;;;;;;7.95;4.75;;;;;;;;;;8159498;28;20031;-70
2022/04/24 01:25:35;;;;;;;4.40;3.92;;;;;;;;;;8156500;28;20046;-70
2022/04/24 01:29:35;;;;;;;4.35;3.90;;;;;;;;;;8157238;28;20137;-70
2022/04/24 01:33:36;;;;;;;5.85;4.00;;;;;;;;;;8158288;28;20114;-70
2022/04/24 01:37:36;;;;;;;9.02;4.03;;;;;;;;;;8162500;28;20027;-69
2022/04/24 01:41:36;;;;;;;4.97;3.65;;;;;;;;;;8158910;28;20097;-70
2022/04/24 01:45:37;;;;;;;4.30;3.90;;;;;;;;;;8160892;28;20043;-70
2022/04/24 01:49:37;;;;;;;6.10;3.53;;;;;;;;;;8160535;28;20035;-70
2022/04/24 01:53:37;;;;;;;4.40;3.47;;;;;;;;;;8160537;28;20039;-70
2022/04/24 01:57:37;;;;;;;4.60;3.38;;;;;;;;;;8161657;28;20101;-70
2022/04/24 02:01:37;;;;;;;4.25;3.85;;;;;;;;;;8159503;28;20054;-69
2022/04/24 02:05:38;;;;;;;4.97;3.73;;;;;;;;;;8156997;28;20401;-70
2022/04/24 02:09:40;;;;;;;3.95;3.35;;;;;;;;;;8161416;28;21008;-70
2022/04/24 02:13:40;;;;;;;3.63;3.33;;;;;;;;;;8159483;28;20027;-70
2022/04/24 02:17:40;;;;;;;5.20;3.40;;;;;;;;;;8162873;28;20052;-70
2022/04/24 02:21:40;;;;;;;3.53;3.15;;;;;;;;;;8168204;28;20023;-70
2022/04/24 02:25:40;;;;;;;3.28;2.97;;;;;;;;;;8167361;28;20069;-70
2022/04/24 02:29:41;;;;;;;4.78;3.60;;;;;;;;;;8168036;28;20031;-69
2022/04/24 02:33:41;;;;;;;3.53;3.17;;;;;;;;;;8178689;28;20040;-70
2022/04/24 02:37:42;;;;;;;3.17;2.85;;;;;;;;;;8165126;28;20031;-70
2022/04/24 02:41:42;;;;;;;5.03;3.40;;;;;;;;;;8164802;28;20671;-70
2022/04/24 02:45:42;;;;;;;5.22;3.05;;;;;;;;;;8164784;28;20039;-70
2022/04/24 02:49:42;;;;;;;5.73;3.27;;;;;;;;;;8163461;28;20032;-70
2022/04/24 02:53:43;;;;;;;4.10;3.30;;;;;;;;;;8165575;28;21234;-70
2022/04/24 02:57:43;;;;;;;3.10;2.80;;;;;;;;;;8163535;28;20030;-70
2022/04/24 03:01:46;;;;;;;3.40;3.10;;;;;;;;;;8162432;28;20271;-70
2022/04/24 03:05:48;;;;;;;4.38;3.10;;;;;;;;;;8167033;28;20031;-70
2022/04/24 03:09:48;;;;;;;3.47;3.15;;;;;;;;;;8163431;28;20740;-70
2022/04/24 03:13:48;;;;;;;3.78;2.78;;;;;;;;;;8159527;28;20069;-70
2022/04/24 03:17:50;;;;;;;4.40;3.13;;;;;;;;;;8165027;28;20038;-70
2022/04/24 03:21:50;;;;;;;3.40;3.10;;;;;;;;;;8169125;28;20031;-70
2022/04/24 03:25:50;;;;;;;2.70;2.50;;;;;;;;;;8157410;28;20812;-70
2022/04/24 03:29:50;;;;;;;3.80;3.00;;;;;;;;;;8161511;28;20274;-70
2022/04/24 03:33:52;;;;;;;4.60;3.20;;;;;;;;;;8161316;28;20055;-70
2022/04/24 03:37:52;;;;;;;3.83;3.40;;;;;;;;;;8163466;28;20113;-70
2022/04/24 03:41:52;;;;;;;3.50;2.90;;;;;;;;;;8162302;28;20446;-70
2022/04/24 03:45:52;;;;;;;3.30;2.97;;;;;;;;;;8161140;28;20035;-70
2022/04/24 03:49:52;;;;;;;3.50;3.20;;;;;;;;;;8164194;28;20489;-70
2022/04/24 03:53:53;;;;;;;6.97;3.00;;;;;;;;;;8166714;28;20031;-70
2022/04/24 03:57:53;;;;;;;4.18;3.47;;;;;;;;;;8164971;28;20287;-70
2022/04/24 04:01:53;;;;;;;3.47;3.17;;;;;;;;;;8164639;28;20046;-70
2022/04/24 04:05:53;;;;;;;5.43;3.33;;;;;;;;;;8162673;28;20034;-69
2022/04/24 04:09:55;;;;;;;3.78;3.45;;;;;;;;;;8162485;28;20039;-70
2022/04/24 04:13:55;;;;;;;4.93;3.28;;;;;;;;;;8161214;28;20105;-69
2022/04/24 04:17:55;;;;;;;3.50;3.08;;;;;;;;;;8162351;28;20865;-69
2022/04/24 04:21:55;;;;;;;4.05;3.30;;;;;;;;;;8162943;28;20133;-69
2022/04/24 04:25:56;;;;;;;3.97;3.30;;;;;;;;;;8166212;28;20531;-69
2022/04/24 04:29:56;;;;;;;3.72;2.97;;;;;;;;;;8165035;28;20031;-69
2022/04/24 04:33:56;;;;;;;3.42;3.13;;;;;;;;;;8159670;28;20039;-69
2022/04/24 04:37:56;;;;;;;3.30;3.00;;;;;;;;;;8164545;28;21741;-69
2022/04/24 04:41:56;;;;;;;3.45;3.15;;;;;;;;;;8159856;28;20031;-69
2022/04/24 04:45:57;;;;;;;3.45;3.15;;;;;;;;;;8160718;28;20093;-69
2022/04/24 04:49:57;;;;;;;3.63;3.33;;;;;;;;;;8160597;28;20027;-69
2022/04/24 04:53:57;;;;;;;3.53;3.22;;;;;;;;;;8160579;28;20298;-69
2022/04/24 04:57:58;;;;;;;6.55;3.22;;;;;;;;;;8161664;28;20026;-69
2022/04/24 05:01:58;;;;;;;4.55;3.47;;;;;;;;;;8160355;28;20150;-69
2022/04/24 05:05:58;;;;;;;4.00;3.45;;;;;;;;;;8160919;28;20145;-70
2022/04/24 05:09:58;;;;;;;3.63;2.95;;;;;;;;;;8161438;28;20027;-70
2022/04/24 05:13:59;;;;;;;5.10;3.40;;;;;;;;;;8161269;28;20054;-70
2022/04/24 05:17:59;;;;;;;3.25;2.95;;;;;;;;;;8160602;28;20142;-70
2022/04/24 05:21:59;;;;;;;3.35;2.97;;;;;;;;;;8160586;28;20027;-70
2022/04/24 05:25:59;;;;;;;5.45;3.47;;;;;;;;;;8161249;28;20030;-70
2022/04/24 05:29:59;;;;;;;3.72;3.28;;;;;;;;;;8159915;28;20027;-70
2022/04/24 05:33:59;;;;;;;5.38;3.85;;;;;;;;;;8159032;28;20098;-70
2022/04/24 05:38:00;;;;;;;4.38;3.30;;;;;;;;;;8159967;28;20022;-70
2022/04/24 05:42:00;;;;;;;6.38;3.35;;;;;;;;;;8160119;28;20409;-70
2022/04/24 05:46:00;;;;;;;3.75;3.40;;;;;;;;;;8159733;28;20035;-70
2022/04/24 05:50:00;;;;;;;3.60;3.17;;;;;;;;;;8160207;28;20027;-70
2022/04/24 05:54:00;;;;;;;4.10;3.70;;;;;;;;;;8165273;28;20151;-70
2022/04/24 05:58:00;;;;;;;5.78;3.55;;;;;;;;;;8167242;28;20027;-70
2022/04/24 06:02:01;;;;;;;5.72;3.30;;;;;;;;;;8165355;28;20106;-70
2022/04/24 06:06:01;;;;;;;4.15;3.72;;;;;;;;;;8167502;28;20031;-70
2022/04/24 06:10:02;;;;;;;5.68;4.03;;;;;;;;;;8164662;28;20023;-70
2022/04/24 06:14:02;;;;;;;4.60;3.92;;;;;;;;;;8165367;28;20024;-70
2022/04/24 06:18:02;;;;;;;4.88;3.83;;;;;;;;;;8162920;28;20569;-70
2022/04/24 06:22:02;;;;;;;4.25;3.85;;;;;;;;;;8165582;28;20166;-70
2022/04/24 06:26:02;;;;;;;3.83;3.53;;;;;;;;;;8172492;28;20039;-69
2022/04/24 06:30:03;;;;;;;4.03;3.72;;;;;;;;;;8165754;28;20054;-70
2022/04/24 06:34:03;;;;;;;4.53;4.00;;;;;;;;;;8166568;28;20037;-70
2022/04/24 06:38:04;;;;;;;5.90;4.00;;;;;;;;;;8166944;28;20259;-70
2022/04/24 06:42:04;;;;;;;4.63;4.22;;;;;;;;;;8164015;28;20283;-70
2022/04/24 06:46:04;;;;;;;4.57;4.00;;;;;;;;;;8166768;28;20863;-69
2022/04/24 06:50:05;;;;;;;5.53;4.07;;;;;;;;;;8167073;28;20040;-70
2022/04/24 06:54:05;;;;;;;5.60;4.20;;;;;;;;;;8167142;28;20572;-69
2022/04/24 06:58:06;;;;;;;4.25;3.83;;;;;;;;;;8169594;28;20134;-69
2022/04/24 07:02:06;;;;;;;4.20;3.72;;;;;;;;;;8166039;28;20130;-70
2022/04/24 07:06:07;;;;;;;4.22;3.83;;;;;;;;;;8165885;28;20062;-70
2022/04/24 07:10:10;;;;;;;4.68;4.22;;;;;;;;;;8165641;28;20043;-70
2022/04/24 07:14:10;;;;;;;4.55;4.13;;;;;;;;;;8165477;28;20054;-70
2022/04/24 07:18:11;;;;;;;5.88;4.07;;;;;;;;;;8163200;28;20066;-70
2022/04/24 07:22:11;;;;;;;4.70;4.20;;;;;;;;;;8164964;28;20443;-70
2022/04/24 07:26:11;;;;;;;5.80;4.53;;;;;;;;;;8164195;28;20054;-70
2022/04/24 07:30:15;;;;;;;4.10;3.70;;;;;;;;;;8162036;28;20031;-70
2022/04/24 07:34:15;;;;;;;4.35;3.78;;;;;;;;;;8177636;28;20027;-70
2022/04/24 07:38:16;;;;;;;5.22;4.28;;;;;;;;;;8164494;28;20349;-70
2022/04/24 07:42:16;;;;;;;7.13;3.90;;;;;;;;;;8165549;28;20027;-70
2022/04/24 07:46:16;;;;;;;4.38;3.97;;;;;;;;;;8162723;28;20060;-70
2022/04/24 07:50:17;;;;;;;5.07;4.57;;;;;;;;;;8161984;28;20066;-69
2022/04/24 07:54:17;;;;;;;5.18;4.63;;;;;;;;;;8161774;28;20134;-70
2022/04/24 07:58:17;;;;;;;5.93;4.82;;;;;;;;;;8161545;28;20055;-70
2022/04/24 08:02:18;;;;;;;4.53;4.10;;;;;;;;;;8157177;28;20106;-70
2022/04/24 08:06:18;;;;;;;5.32;4.25;;;;;;;;;;8160656;28;20039;-70
2022/04/24 08:10:19;;;;;;;4.78;4.38;;;;;;;;;;8164003;28;20023;-70
2022/04/24 08:14:20;;;;;;;5.00;4.50;;;;;;;;;;8161831;28;20133;-71
2022/04/24 08:18:21;;;;;;;5.25;4.60;;;;;;;;;;8159543;28;20081;-70
2022/04/24 08:22:21;;;;;;;4.78;4.38;;;;;;;;;;8162482;28;20055;-70
2022/04/24 08:26:21;;;;;;;4.70;4.25;;;;;;;;;;8163634;28;20030;-70
2022/04/24 08:30:23;;;;;;;5.10;4.60;;;;;;;;;;8158902;28;22416;-70
2022/04/24 08:34:23;;;;;;;6.20;4.90;;;;;;;;;;8160964;28;20034;-70
2022/04/24 08:38:23;;;;;;;5.47;4.78;;;;;;;;;;8161361;28;20027;-69
2022/04/24 08:42:24;;;;;;;5.93;5.10;;;;;;;;;;8158912;28;20027;-70
2022/04/24 08:46:24;;;;;;;6.93;5.45;;;;;;;;;;8159417;28;20043;-70
2022/04/24 08:50:28;;;;;;;5.70;5.20;;;;;;;;;;8161188;28;20038;-70
2022/04/24 08:54:29;;;;;;;5.38;4.78;;;;;;;;;;8162866;28;20029;-71
2022/04/24 08:58:30;;;;;;;5.40;4.88;;;;;;;;;;8163923;28;20063;-70
2022/04/24 09:02:31;;;;;;;5.78;5.22;;;;;;;;;;8160501;28;20048;-70
2022/04/24 09:06:31;;;;;;;6.00;5.23;;;;;;;;;;8160646;28;20033;-70
2022/04/24 09:10:31;;;;;;;5.80;4.95;;;;;;;;;;8162060;28;20065;-71
2022/04/24 09:14:32;;;;;;;5.28;4.70;;;;;;;;;;8160081;28;20034;-70
2022/04/24 09:18:39;;;;;;;5.15;4.63;;;;;;;;;;8160608;28;20023;-71
2022/04/24 09:22:39;;;;;;;5.95;5.38;;;;;;;;;;8160755;28;20058;-71
2022/04/24 09:27:09;;;;;;;6.55;5.88;;;;;;;;;;8160417;28;20030;-71
2022/04/24 09:31:09;;;;;;;5.97;5.38;;;;;;;;;;8149281;28;20058;-71
2022/04/24 09:35:09;;;;;;;6.85;5.50;;;;;;;;;;8159328;28;20060;-71
2022/04/24 09:39:09;;;;;;;6.55;5.25;;;;;;;;;;8158730;28;20030;-71
2022/04/24 09:43:19;;;;;;;5.93;5.33;;;;;;;;;;8160484;28;20150;-71
2022/04/24 09:47:23;;;;;;;8.00;6.10;;;;;;;;;;8158462;28;20855;-71
2022/04/24 09:51:24;;;;;;;6.22;5.35;;;;;;;;;;8157967;28;20035;-70
2022/04/24 09:55:28;;;;;;;5.97;5.38;;;;;;;;;;8159237;28;20042;-70
2022/04/24 09:59:28;;;;;;;6.82;5.80;;;;;;;;;;8161356;28;21037;-70
2022/04/24 10:03:29;;;;;;;6.53;5.85;;;;;;;;;;8161743;28;20039;-70
2022/04/24 10:07:30;;;;;;;6.15;5.40;;;;;;;;;;8161362;28;20033;-70
2022/04/24 10:11:30;;;;;;;7.88;5.85;;;;;;;;;;8160174;28;20069;-70
2022/04/24 10:15:32;;;;;;;7.35;6.55;;;;;;;;;;8162065;28;20066;-70
2022/04/24 10:19:33;;;;;;;7.72;6.40;;;;;;;;;;8159279;28;20034;-70
2022/04/24 10:23:34;;;;;;;7.32;6.55;;;;;;;;;;8159925;28;20677;-70
2022/04/24 10:27:37;;;;;;;7.28;6.60;;;;;;;;;;8160317;28;20598;-70
2022/04/24 10:31:44;;;;;;;7.65;5.97;;;;;;;;;;8160166;28;20515;-70
2022/04/24 10:35:45;;;;;;;7.88;7.05;;;;;;;;;;8158693;28;20562;-70
2022/04/24 10:39:53;;;;;;;8.57;7.50;;;;;;;;;;8162783;28;20044;-70
2022/04/24 10:43:57;;;;;;;7.75;6.57;;;;;;;;;;8163232;28;20040;-70
2022/04/24 10:48:03;;;;;;;9.95;6.85;;;;;;;;;;8163267;28;20245;-70
2022/04/24 10:52:04;;;;;;;8.25;7.45;;;;;;;;;;8163208;28;20137;-70
2022/04/24 10:56:04;;;;;;;9.73;7.30;;;;;;;;;;8165957;28;20023;-70
2022/04/24 11:00:12;;;;;;;9.20;7.45;;;;;;;;;;8179799;28;20193;-70
2022/04/24 11:04:14;;;;;;;8.65;7.32;;;;;;;;;;8166449;28;20028;-71
2022/04/24 11:08:18;;;;;;;7.82;6.78;;;;;;;;;;8167460;28;20028;-70
2022/04/24 11:12:28;;;;;;;8.60;7.25;;;;;;;;;;8171623;28;20041;-71
2022/04/24 11:16:28;;;;;;;11.00;8.00;;;;;;;;;;8179816;28;20063;-71
2022/04/24 11:20:31;;;;;;;8.20;6.93;;;;;;;;;;8162089;28;20908;-71
2022/04/24 11:24:33;;;;;;;9.10;7.50;;;;;;;;;;8166629;28;20023;-71
2022/04/24 11:28:41;;;;;;;8.82;7.93;;;;;;;;;;8165109;28;20039;-71
2022/04/24 11:32:41;;;;;;;9.20;7.97;;;;;;;;;;8163722;28;20047;-71
2022/04/24 11:36:42;;;;;;;11.18;7.70;;;;;;;;;;8163770;28;20031;-71
2022/04/24 11:40:43;;;;;;;8.57;7.68;;;;;;;;;;8161980;28;20027;-71
2022/04/24 11:53:24;;;;;;;8.88;7.97;;;;;;;;;;8162789;28;20042;-71
2022/04/24 11:57:25;;;;;;;9.38;7.65;;;;;;;;;;8163508;28;20023;-71
2022/04/24 12:01:26;;;;;;;8.07;7.05;;;;;;;;;;8163074;28;20779;-71
2022/04/24 12:05:29;;;;;;;9.68;8.10;;;;;;;;;;8163421;28;20409;-71
2022/04/24 12:09:30;;;;;;;8.27;7.47;;;;;;;;;;8164712;28;20389;-71
2022/04/24 12:13:32;;;;;;;8.02;7.25;;;;;;;;;;8159683;28;20119;-71
2022/04/24 12:17:32;;;;;;;9.52;8.13;;;;;;;;;;8151486;28;20043;-71
2022/04/24 12:21:34;;;;;;;10.68;7.57;;;;;;;;;;8163877;28;20023;-71
2022/04/24 12:25:45;;;;;;;10.65;8.15;;;;;;;;;;8163479;28;20031;-71
2022/04/24 12:29:49;;;;;;;8.10;7.30;;;;;;;;;;8161530;28;20027;-71
2022/04/24 12:33:56;;;;;;;9.32;8.10;;;;;;;;;;8163339;28;20089;-71
2022/04/24 12:37:58;;;;;;;8.35;7.55;;;;;;;;;;8166190;28;20027;-71
2022/04/24 12:41:59;;;;;;;9.45;7.97;;;;;;;;;;8164574;28;20023;-71
2022/04/24 12:45:59;;;;;;;7.65;6.95;;;;;;;;;;8164477;28;20476;-70
2022/04/24 12:50:03;;;;;;;8.30;7.40;;;;;;;;;;8164528;28;20030;-71
2022/04/24 12:54:03;;;;;;;;;;;;;;;;;;8165436;28;20281;-71
2022/04/24 12:58:03;;;;;;;7.83;7.03;;;;;;;;;;8163710;28;20097;-71
2022/04/24 13:02:07;;;;;;;8.32;7.35;;;;;;;;;;8162375;28;20042;-70
2022/04/24 13:06:08;;;;;;;7.90;7.10;;;;;;;;;;8160847;28;20030;-70
2022/04/24 13:10:11;;;;;;;8.98;6.88;;;;;;;;;;8161537;28;20019;-71
2022/04/24 13:14:11;;;;;;;7.47;6.78;;;;;;;;;;8172539;28;20479;-70
2022/04/24 13:18:11;;;;;;;8.10;7.30;;;;;;;;;;8157958;28;20393;-71
2022/04/24 13:22:11;;;;;;;7.68;6.88;;;;;;;;;;8157520;28;20259;-71
2022/04/24 13:26:11;;;;;;;10.70;7.55;;;;;;;;;;8157602;28;20845;-71
2022/04/24 13:30:12;;;;;;;8.23;7.15;;;;;;;;;;8156610;28;20031;-71
2022/04/24 13:34:12;;;;;;;10.27;7.28;;;;;;;;;;8128629;28;21487;-71
2022/04/24 13:38:18;;;;;;;7.85;7.05;;;;;;;;;;8156522;28;20147;-71
2022/04/24 13:42:18;;;;;;;7.70;6.90;;;;;;;;;;8157021;28;20049;-71
2022/04/24 13:46:19;;;;;;;8.43;7.43;;;;;;;;;;8159043;28;20041;-70
2022/04/24 13:50:20;;;;;;;8.02;7.22;;;;;;;;;;8154899;28;20495;-70
2022/04/24 13:54:20;;;;;;;8.93;7.28;;;;;;;;;;8157335;28;20675;-70
2022/04/24 13:58:20;;;;;;;7.57;6.83;;;;;;;;;;8156349;28;20015;-71
2022/04/24 14:02:21;;;;;;;7.95;7.07;;;;;;;;;;8156713;28;20283;-70
2022/04/24 14:06:22;;;;;;;8.00;7.20;;;;;;;;;;8158675;28;20022;-70
2022/04/24 14:10:22;;;;;;;7.18;6.47;;;;;;;;;;8156353;28;20729;-71
2022/04/24 14:14:22;;;;;;;8.13;7.03;;;;;;;;;;8161037;28;20027;-71
2022/04/24 14:18:22;;;;;;;8.15;7.13;;;;;;;;;;8161844;28;20117;-72
2022/04/24 14:22:23;;;;;;;8.85;7.28;;;;;;;;;;8161329;28;20040;-71
2022/04/24 14:26:23;;;;;;;7.67;6.20;;;;;;;;;;8165170;28;20037;-71
2022/04/24 14:30:23;;;;;;;6.73;6.07;;;;;;;;;;8163426;28;20895;-71
2022/04/24 14:34:25;;;;;;;7.50;6.70;;;;;;;;;;8162531;28;20035;-71
2022/04/24 14:38:25;;;;;;;8.05;7.10;;;;;;;;;;8164028;28;20273;-71
2022/04/24 14:42:25;;;;;;;7.93;7.10;;;;;;;;;;8161093;28;20127;-71
2022/04/24 14:59:23;;;;;;;8.05;6.55;;;;;;;;;;8163122;28;20029;-71
2022/04/24 15:03:25;;;;;;;7.53;6.72;;;;;;;;;;8161102;28;20043;-71
2022/04/24 15:07:25;;;;;;;8.00;6.40;;;;;;;;;;8165800;28;20028;-71
2022/04/24 15:11:26;;;;;;;7.85;6.28;;;;;;;;;;8164863;28;20857;-71
2022/04/24 15:15:26;;;;;;;7.05;6.35;;;;;;;;;;8164729;28;20146;-71
2022/04/24 15:19:29;;;;;;;9.07;6.65;;;;;;;;;;8161417;28;20648;-71
2022/04/24 15:23:29;;;;;;;7.27;6.57;;;;;;;;;;8161315;28;20108;-71
2022/04/24 15:27:30;;;;;;;8.18;6.38;;;;;;;;;;8160792;28;20062;-71
2022/04/24 15:31:30;;;;;;;8.00;6.50;;;;;;;;;;8161890;28;20070;-71
2022/04/24 15:35:32;;;;;;;8.43;7.20;;;;;;;;;;8161291;28;20113;-71
2022/04/24 15:39:34;;;;;;;8.98;6.72;;;;;;;;;;8159831;28;20124;-74
2022/04/24 15:43:35;;;;;;;7.60;6.72;;;;;;;;;;8158769;28;20031;-71
2022/04/24 15:47:35;;;;;;;7.95;6.65;;;;;;;;;;8157331;28;20154;-71
2022/04/24 15:51:35;;;;;;;6.50;5.72;;;;;;;;;;8160467;28;20074;-71
2022/04/24 15:55:36;;;;;;;6.80;6.20;;;;;;;;;;8158601;28;20359;-71
2022/04/24 15:59:36;;;;;;;7.30;6.03;;;;;;;;;;8160577;28;20118;-72
2022/04/24 16:03:36;;;;;;;7.25;6.50;;;;;;;;;;8160972;28;20055;-72
2022/04/24 16:07:40;;;;;;;6.95;6.18;;;;;;;;;;8160939;28;20031;-71
2022/04/24 16:11:40;;;;;;;7.93;6.85;;;;;;;;;;8159838;28;20031;-71
2022/04/24 16:15:43;;;;;;;8.60;7.65;;;;;;;;;;8161892;28;20050;-71
2022/04/24 16:19:43;;;;;;;9.00;7.25;;;;;;;;;;8158973;28;20035;-71
2022/04/24 16:23:43;;;;;;;8.98;7.95;;;;;;;;;;8159331;28;20721;-71
2022/04/24 16:27:45;;;;;;;8.20;7.47;;;;;;;;;;8159934;28;20088;-71
2022/04/24 16:31:45;;;;;;;9.23;8.25;;;;;;;;;;8157803;28;20751;-71
2022/04/24 16:35:45;;;;;;;9.82;8.23;;;;;;;;;;8158574;28;20039;-71
2022/04/24 16:39:45;;;;;;;10.82;8.30;;;;;;;;;;8159219;28;20030;-71
2022/04/24 16:43:45;;;;;;;8.95;7.38;;;;;;;;;;8159075;28;20134;-71
2022/04/24 16:47:46;;;;;;;9.48;8.18;;;;;;;;;;8158602;28;20520;-71
2022/04/24 17:00:24;;;;;;;9.98;8.40;;;;;;;;;;8170155;28;20987;-71
2022/04/24 17:04:26;;;;;;;9.68;8.68;;;;;;;;;;8160152;28;20023;-71
2022/04/24 17:08:26;;;;;;;11.20;8.45;;;;;;;;;;8161929;28;20034;-71
2022/04/24 17:12:27;;;;;;;9.43;8.43;;;;;;;;;;8148067;28;20766;-71
2022/04/24 17:16:27;;;;;;;9.52;8.52;;;;;;;;;;8158845;28;20031;-71
2022/04/24 17:20:28;;;;;;;10.07;8.02;;;;;;;;;;8157167;28;20030;-71
2022/04/24 17:24:28;;;;;;;8.32;7.50;;;;;;;;;;8171408;28;20489;-71
2022/04/24 17:28:29;;;;;;;8.70;7.78;;;;;;;;;;8157521;28;20020;-71
2022/04/24 17:32:30;;;;;;;8.38;7.55;;;;;;;;;;8157493;28;20097;-71
2022/04/24 17:36:30;;;;;;;8.00;7.20;;;;;;;;;;8158496;28;20019;-71
2022/04/24 17:40:30;;;;;;;8.38;7.28;;;;;;;;;;8157523;28;20050;-71
2022/04/24 17:44:34;;;;;;;9.10;7.70;;;;;;;;;;8158291;28;20058;-71
2022/04/24 17:48:34;;;;;;;10.48;7.88;;;;;;;;;;8158366;28;20507;-71
2022/04/24 17:52:34;;;;;;;7.68;6.88;;;;;;;;;;8164881;28;20153;-72
2022/04/24 17:56:35;;;;;;;8.00;6.88;;;;;;;;;;8166643;28;20019;-72
2022/04/24 18:00:35;;;;;;;7.25;6.55;;;;;;;;;;8161955;28;20150;-71
2022/04/24 18:04:36;;;;;;;8.95;6.97;;;;;;;;;;8162782;28;20066;-72
2022/04/24 18:08:36;;;;;;;6.63;6.03;;;;;;;;;;8162288;28;20042;-72
2022/04/24 18:12:36;;;;;;;7.05;6.35;;;;;;;;;;8176752;28;20038;-72
2022/04/24 18:16:37;;;;;;;7.05;6.35;;;;;;;;;;8161069;28;20760;-71
2022/04/24 18:20:37;;;;;;;8.02;7.22;;;;;;;;;;8161577;28;20666;-72
2022/04/24 18:24:37;;;;;;;9.20;6.90;;;;;;;;;;8163648;28;20134;-72
2022/04/24 18:28:37;;;;;;;7.20;6.50;;;;;;;;;;8165030;28;20497;-71
2022/04/24 18:32:38;;;;;;;8.18;6.78;;;;;;;;;;8161982;28;20043;-71
2022/04/24 18:41:00;;;;;;;7.63;6.80;;;;;;;;;;8163420;28;20181;-71
2022/04/24 18:45:00;;;;;;;7.07;6.37;;;;;;;;;;8163692;28;20027;-71
2022/04/24 18:49:01;;;;;;;6.53;5.88;;;;;;;;;;8163328;28;20031;-71
2022/04/24 18:53:02;;;;;;;6.47;5.78;;;;;;;;;;8162052;28;20576;-71
2022/04/24 18:57:02;;;;;;;7.00;5.88;;;;;;;;;;8163109;28;20115;-71
2022/04/24 19:01:03;;;;;;;7.00;6.30;;;;;;;;;;8161221;28;20118;-71
2022/04/24 19:09:22;;;;;;;7.32;5.70;;;;;;;;;;8162412;28;20030;-71
2022/04/24 19:13:22;;;;;;;7.37;6.60;;;;;;;;;;8159102;28;20027;-71
2022/04/24 19:17:22;;;;;;;9.90;7.95;;;;;;;;;;8161832;28;20701;-71
2022/04/24 19:21:27;;;;;;;13.93;9.95;;;;;;;;;;8160540;28;20704;-71
2022/04/24 19:25:27;;;;;;;12.40;8.90;;;;;;;;;;8157628;28;20026;-71
2022/04/24 19:29:27;;;;;;;10.73;7.63;;;;;;;;;;8163186;28;20556;-71
2022/04/24 19:33:28;;;;;;;14.32;8.50;;;;;;;;;;8159711;28;20113;-71
2022/04/24 19:37:28;;;;;;;10.30;8.15;;;;;;;;;;8174630;28;20037;-70
2022/04/24 19:41:28;;;;;;;9.73;7.90;;;;;;;;;;8159800;28;20027;-70
2022/04/24 19:45:29;;;;;;;10.85;7.82;;;;;;;;;;8161082;28;20055;-70
2022/04/24 19:49:29;;;;;;;10.32;7.65;;;;;;;;;;8158584;28;20094;-70
2022/04/24 19:53:30;;;;;;;10.63;8.10;;;;;;;;;;8158325;28;20464;-70
2022/04/24 19:57:30;;;;;;;10.07;8.13;;;;;;;;;;8159957;28;20023;-70
2022/04/24 20:01:31;;;;;;;9.80;8.27;;;;;;;;;;8160384;28;20162;-70
2022/04/24 20:05:32;;;;;;;9.50;7.95;;;;;;;;;;8159785;28;20895;-71
2022/04/24 20:09:32;;;;;;;10.40;8.07;;;;;;;;;;8162036;28;20030;-71
2022/04/24 20:13:33;;;;;;;8.40;7.50;;;;;;;;;;8156889;28;20066;-71
2022/04/24 20:17:34;;;;;;;8.70;7.78;;;;;;;;;;8158923;28;20626;-70
2022/04/24 20:21:36;;;;;;;8.07;7.25;;;;;;;;;;8159390;28;20114;-71
2022/04/24 20:25:36;;;;;;;7.40;6.63;;;;;;;;;;8160190;28;20102;-70
2022/04/24 20:29:38;;;;;;;7.77;6.90;;;;;;;;;;8159735;28;20038;-71
2022/04/24 20:33:38;;;;;;;7.75;6.78;;;;;;;;;;8160519;28;20291;-70
2022/04/24 20:37:39;;;;;;;7.70;6.95;;;;;;;;;;8162187;28;20034;-70
2022/04/24 20:41:42;;;;;;;6.78;5.80;;;;;;;;;;8160980;28;20026;-70
2022/04/24 20:45:43;;;;;;;7.07;6.40;;;;;;;;;;8161727;28;20039;-70
2022/04/24 20:49:43;;;;;;;8.10;7.07;;;;;;;;;;8162966;28;20035;-70
2022/04/24 20:53:43;;;;;;;8.43;7.63;;;;;;;;;;8167297;28;20282;-70
2022/04/24 20:57:44;;;;;;;8.60;7.70;;;;;;;;;;8161771;28;20118;-70
2022/04/24 21:01:44;;;;;;;9.07;7.20;;;;;;;;;;8160989;28;20103;-70
2022/04/24 21:05:45;;;;;;;7.38;6.63;;;;;;;;;;8174477;28;20283;-71
2022/04/24 21:09:45;;;;;;;7.78;6.95;;;;;;;;;;8162898;28;20625;-72
2022/04/24 21:13:45;;;;;;;9.68;6.63;;;;;;;;;;8159771;28;20067;-71
2022/04/24 21:17:46;;;;;;;7.13;6.43;;;;;;;;;;8160130;28;20039;-71
2022/04/24 21:21:46;;;;;;;7.13;6.43;;;;;;;;;;8162650;28;20029;-71
2022/04/24 21:25:46;;;;;;;7.40;6.43;;;;;;;;;;8163000;28;20034;-71
2022/04/24 21:29:46;;;;;;;8.32;6.45;;;;;;;;;;8161594;28;20415;-71
2022/04/24 21:33:47;;;;;;;8.52;6.57;;;;;;;;;;8158776;28;20122;-71
2022/04/24 21:37:49;;;;;;;6.60;5.80;;;;;;;;;;8161533;28;20039;-71
2022/04/24 21:41:50;;;;;;;6.68;5.97;;;;;;;;;;8160572;28;20377;-71
2022/04/24 21:45:50;;;;;;;7.80;6.28;;;;;;;;;;8161387;28;20062;-72
2022/04/24 21:49:50;;;;;;;7.68;6.90;;;;;;;;;;8159918;28;20034;-71
2022/04/24 21:53:50;;;;;;;6.90;6.27;;;;;;;;;;8160297;28;20031;-71
2022/04/24 21:57:53;;;;;;;9.77;8.17;;;;;;;;;;8162244;28;20471;-71
2022/04/24 22:06:11;;;;;;;8.23;7.18;;;;;;;;;;8161558;28;20070;-71
2022/04/24 22:10:12;;;;;;;8.73;7.20;;;;;;;;;;8158554;28;20729;-71
2022/04/24 22:14:13;;;;;;;8.57;7.10;;;;;;;;;;8158444;28;20499;-72
2022/04/24 22:18:14;;;;;;;7.55;6.78;;;;;;;;;;8158510;28;20283;-71
2022/04/24 22:26:33;;;;;;;8.13;7.32;;;;;;;;;;8157989;28;20595;-71
2022/04/24 22:30:33;;;;;;;8.45;7.53;;;;;;;;;;8161447;28;20031;-71
2022/04/24 22:34:34;;;;;;;9.07;8.20;;;;;;;;;;8162543;28;20038;-71
2022/04/24 22:38:37;;;;;;;8.98;7.85;;;;;;;;;;8166963;28;20027;-71
2022/04/24 22:42:37;;;;;;;8.65;7.72;;;;;;;;;;8163781;28;20039;-71
2022/04/24 22:46:37;;;;;;;9.73;8.35;;;;;;;;;;8163782;28;20042;-71
2022/04/24 22:50:38;;;;;;;9.35;7.90;;;;;;;;;;8164862;28;20034;-71
2022/04/24 22:54:38;;;;;;;9.80;8.75;;;;;;;;;;8173735;28;20067;-70
2022/04/24 22:58:40;;;;;;;9.85;8.85;;;;;;;;;;8166091;28;20034;-71
2022/04/24 23:02:40;;;;;;;11.77;7.68;;;;;;;;;;8162551;28;20417;-70
2022/04/24 23:06:41;;;;;;;9.15;8.07;;;;;;;;;;8168382;28;20049;-71
2022/04/24 23:10:41;;;;;;;8.93;8.02;;;;;;;;;;8166795;28;20023;-71
2022/04/24 23:14:41;;;;;;;10.85;8.80;;;;;;;;;;8165740;28;20046;-71
2022/04/24 23:23:00;;;;;;;9.52;8.57;;;;;;;;;;8164813;28;20041;-71
2022/04/24 23:27:02;;;;;;;8.60;7.75;;;;;;;;;;8162218;28;20130;-71
2022/04/24 23:31:04;;;;;;;9.00;8.10;;;;;;;;;;8166001;28;20038;-71
2022/04/24 23:35:06;;;;;;;11.35;9.25;;;;;;;;;;8166312;28;20034;-71
2022/04/24 23:39:10;;;;;;;9.45;8.45;;;;;;;;;;8168256;28;20014;-71
2022/04/24 23:43:10;;;;;;;9.00;8.10;;;;;;;;;;8166164;28;20094;-71
2022/04/24 23:47:10;;;;;;;9.43;8.48;;;;;;;;;;8165749;28;20036;-71
2022/04/24 23:51:10;;;;;;;9.13;8.20;;;;;;;;;;8161047;28;20126;-71
2022/04/24 23:55:10;;;;;;;9.70;8.43;;;;;;;;;;8164468;28;20098;-71
2022/04/24 23:59:11;;;;;;;9.88;7.95;;;;;;;;;;8161970;28;20046;-71
